sensor_id;sensor_type;location;lat;lon;timestamp;pressure;altitude;pressure_sealevel;temperature;humidity
57442;BME280;43284;47.042;15.498;2022-10-16T00:01:40;97488.69;;;8.68;100.00
57442;BME280;43284;47.042;15.498;2022-10-16T00:04:08;97484.28;;;8.70;100.00
57442;BME280;43284;47.042;15.498;2022-10-16T00:06:36;97484.22;;;8.71;100.00
57442;BME280;43284;47.042;15.498;2022-10-16T00:09:04;97485.88;;;8.74;100.00
57442;BME280;43284;47.042;15.498;2022-10-16T00:11:34;97484.91;;;8.76;100.00
57442;BME280;43284;47.042;15.498;2022-10-16T00:14:05;97483.22;;;8.75;100.00
57442;BME280;43284;47.042;15.498;2022-10-16T00:16:34;97481.41;;;8.77;100.00
57442;BME280;43284;47.042;15.498;2022-10-16T00:19:01;97489.28;;;8.76;100.00
57442;BME280;43284;47.042;15.498;2022-10-16T00:21:30;97488.38;;;8.77;100.00
57442;BME280;43284;47.042;15.498;2022-10-16T00:24:02;97486.44;;;8.82;100.00
57442;BME280;43284;47.042;15.498;2022-10-16T00:26:31;97483.78;;;8.83;100.00
57442;BME280;43284;47.042;15.498;2022-10-16T00:29:00;97487.25;;;8.84;100.00
57442;BME280;43284;47.042;15.498;2022-10-16T00:31:28;97493.41;;;8.81;100.00
57442;BME280;43284;47.042;15.498;2022-10-16T00:33:56;97500.38;;;8.81;100.00
57442;BME280;43284;47.042;15.498;2022-10-16T00:36:25;97496.06;;;8.80;100.00
57442;BME280;43284;47.042;15.498;2022-10-16T00:38:54;97506.47;;;8.81;100.00
57442;BME280;43284;47.042;15.498;2022-10-16T00:41:23;97503.69;;;8.86;100.00
57442;BME280;43284;47.042;15.498;2022-10-16T00:43:59;97503.69;;;8.86;100.00
57442;BME280;43284;47.042;15.498;2022-10-16T00:46:29;97494.94;;;8.87;100.00
57442;BME280;43284;47.042;15.498;2022-10-16T00:49:05;97509.56;;;8.91;100.00
57442;BME280;43284;47.042;15.498;2022-10-16T00:51:36;97512.97;;;8.93;100.00
57442;BME280;43284;47.042;15.498;2022-10-16T00:54:06;97510.94;;;9.01;100.00
57442;BME280;43284;47.042;15.498;2022-10-16T00:56:36;97509.13;;;9.03;100.00
57442;BME280;43284;47.042;15.498;2022-10-16T00:59:12;97503.84;;;9.05;100.00
57442;BME280;43284;47.042;15.498;2022-10-16T01:01:42;97509.94;;;9.05;100.00
57442;BME280;43284;47.042;15.498;2022-10-16T01:04:09;97513.59;;;9.00;100.00
57442;BME280;43284;47.042;15.498;2022-10-16T01:07:07;97514.44;;;9.00;100.00
57442;BME280;43284;47.042;15.498;2022-10-16T01:15:31;97513.31;;;9.07;100.00
57442;BME280;43284;47.042;15.498;2022-10-16T01:21:28;97507.06;;;9.12;100.00
57442;BME280;43284;47.042;15.498;2022-10-16T01:24:26;97508.00;;;9.11;100.00
57442;BME280;43284;47.042;15.498;2022-10-16T01:27:41;97501.19;;;9.06;100.00
57442;BME280;43284;47.042;15.498;2022-10-16T01:30:16;97498.63;;;9.05;100.00
57442;BME280;43284;47.042;15.498;2022-10-16T01:35:45;97497.81;;;9.03;100.00
57442;BME280;43284;47.042;15.498;2022-10-16T01:38:39;97501.53;;;8.97;100.00
57442;BME280;43284;47.042;15.498;2022-10-16T01:44:06;97513.94;;;8.91;100.00
57442;BME280;43284;47.042;15.498;2022-10-16T01:46:39;97507.09;;;8.88;100.00
57442;BME280;43284;47.042;15.498;2022-10-16T01:49:09;97513.25;;;8.85;100.00
57442;BME280;43284;47.042;15.498;2022-10-16T01:51:38;97513.25;;;8.85;100.00
57442;BME280;43284;47.042;15.498;2022-10-16T01:54:08;97513.41;;;8.81;100.00
57442;BME280;43284;47.042;15.498;2022-10-16T01:56:37;97507.28;;;8.82;100.00
57442;BME280;43284;47.042;15.498;2022-10-16T01:59:09;97510.75;;;8.82;100.00
57442;BME280;43284;47.042;15.498;2022-10-16T02:01:42;97499.47;;;8.82;100.00
57442;BME280;43284;47.042;15.498;2022-10-16T02:06:51;97499.25;;;8.88;100.00
57442;BME280;43284;47.042;15.498;2022-10-16T02:09:20;97492.28;;;8.89;100.00
57442;BME280;43284;47.042;15.498;2022-10-16T02:11:48;97489.56;;;8.92;100.00
57442;BME280;43284;47.042;15.498;2022-10-16T02:14:19;97492.94;;;8.94;100.00
57442;BME280;43284;47.042;15.498;2022-10-16T02:16:48;97497.44;;;8.90;100.00
57442;BME280;43284;47.042;15.498;2022-10-16T02:19:17;97501.88;;;8.88;100.00
57442;BME280;43284;47.042;15.498;2022-10-16T02:22:03;97497.63;;;8.85;100.00
57442;BME280;43284;47.042;15.498;2022-10-16T02:27:27;97501.13;;;8.84;100.00
57442;BME280;43284;47.042;15.498;2022-10-16T02:30:14;97509.91;;;8.82;100.00
57442;BME280;43284;47.042;15.498;2022-10-16T02:32:46;97514.44;;;8.77;100.00
57442;BME280;43284;47.042;15.498;2022-10-16T02:35:18;97514.38;;;8.78;100.00
57442;BME280;43284;47.042;15.498;2022-10-16T02:37:48;97520.34;;;8.82;100.00
57442;BME280;43284;47.042;15.498;2022-10-16T02:40:17;97521.28;;;8.79;100.00
57442;BME280;43284;47.042;15.498;2022-10-16T02:42:48;97509.06;;;8.81;100.00
57442;BME280;43284;47.042;15.498;2022-10-16T02:45:18;97522.00;;;8.83;100.00
57442;BME280;43284;47.042;15.498;2022-10-16T02:47:45;97521.00;;;8.87;100.00
57442;BME280;43284;47.042;15.498;2022-10-16T02:50:13;97530.53;;;8.88;100.00
57442;BME280;43284;47.042;15.498;2022-10-16T02:52:40;97527.00;;;8.89;100.00
57442;BME280;43284;47.042;15.498;2022-10-16T02:55:08;97520.00;;;8.91;100.00
57442;BME280;43284;47.042;15.498;2022-10-16T02:57:36;97526.81;;;8.95;100.00
57442;BME280;43284;47.042;15.498;2022-10-16T03:00:12;97520.56;;;8.99;100.00
57442;BME280;43284;47.042;15.498;2022-10-16T03:02:40;97525.75;;;9.01;100.00
57442;BME280;43284;47.042;15.498;2022-10-16T03:05:08;97531.72;;;9.03;100.00
57442;BME280;43284;47.042;15.498;2022-10-16T03:07:35;97536.94;;;9.03;100.00
57442;BME280;43284;47.042;15.498;2022-10-16T03:10:03;97538.63;;;9.05;100.00
57442;BME280;43284;47.042;15.498;2022-10-16T03:12:31;97542.06;;;9.06;100.00
57442;BME280;43284;47.042;15.498;2022-10-16T03:15:00;97543.69;;;9.08;100.00
57442;BME280;43284;47.042;15.498;2022-10-16T03:17:28;97540.13;;;9.11;100.00
57442;BME280;43284;47.042;15.498;2022-10-16T03:19:55;97540.91;;;9.13;100.00
57442;BME280;43284;47.042;15.498;2022-10-16T03:22:23;97529.44;;;9.19;100.00
57442;BME280;43284;47.042;15.498;2022-10-16T03:24:51;97531.84;;;9.23;100.00
57442;BME280;43284;47.042;15.498;2022-10-16T03:27:18;97523.19;;;9.23;100.00
57442;BME280;43284;47.042;15.498;2022-10-16T03:29:46;97524.69;;;9.28;100.00
57442;BME280;43284;47.042;15.498;2022-10-16T03:32:13;97533.28;;;9.32;100.00
57442;BME280;43284;47.042;15.498;2022-10-16T03:34:41;97528.91;;;9.33;100.00
57442;BME280;43284;47.042;15.498;2022-10-16T03:37:09;97519.38;;;9.32;100.00
57442;BME280;43284;47.042;15.498;2022-10-16T03:39:37;97515.84;;;9.33;100.00
57442;BME280;43284;47.042;15.498;2022-10-16T03:42:04;97515.91;;;9.31;100.00
57442;BME280;43284;47.042;15.498;2022-10-16T03:44:31;97522.88;;;9.31;100.00
57442;BME280;43284;47.042;15.498;2022-10-16T03:46:59;97531.63;;;9.30;100.00
57442;BME280;43284;47.042;15.498;2022-10-16T03:49:26;97533.38;;;9.29;100.00
57442;BME280;43284;47.042;15.498;2022-10-16T03:51:54;97535.44;;;9.21;100.00
57442;BME280;43284;47.042;15.498;2022-10-16T03:54:21;97544.31;;;9.15;100.00
57442;BME280;43284;47.042;15.498;2022-10-16T03:56:48;97545.16;;;9.16;100.00
57442;BME280;43284;47.042;15.498;2022-10-16T03:59:16;97550.47;;;9.14;100.00
57442;BME280;43284;47.042;15.498;2022-10-16T04:01:44;97550.38;;;9.16;100.00
57442;BME280;43284;47.042;15.498;2022-10-16T04:04:11;97559.13;;;9.15;100.00
57442;BME280;43284;47.042;15.498;2022-10-16T04:06:39;97556.41;;;9.18;100.00
57442;BME280;43284;47.042;15.498;2022-10-16T04:09:06;97552.78;;;9.22;100.00
57442;BME280;43284;47.042;15.498;2022-10-16T04:11:33;97551.94;;;9.21;100.00
57442;BME280;43284;47.042;15.498;2022-10-16T04:14:01;97550.97;;;9.24;100.00
57442;BME280;43284;47.042;15.498;2022-10-16T04:16:29;97546.41;;;9.29;100.00
57442;BME280;43284;47.042;15.498;2022-10-16T04:18:56;97548.34;;;9.24;100.00
57442;BME280;43284;47.042;15.498;2022-10-16T04:21:24;97561.34;;;9.25;100.00
57442;BME280;43284;47.042;15.498;2022-10-16T04:23:52;97550.16;;;9.22;100.00
57442;BME280;43284;47.042;15.498;2022-10-16T04:26:19;97551.19;;;9.18;100.00
57442;BME280;43284;47.042;15.498;2022-10-16T04:28:47;97551.31;;;9.15;100.00
57442;BME280;43284;47.042;15.498;2022-10-16T04:31:14;97554.66;;;9.18;100.00
57442;BME280;43284;47.042;15.498;2022-10-16T04:33:45;97546.84;;;9.18;100.00
57442;BME280;43284;47.042;15.498;2022-10-16T04:36:13;97547.69;;;9.19;100.00
57442;BME280;43284;47.042;15.498;2022-10-16T04:38:40;97552.94;;;9.17;100.00
57442;BME280;43284;47.042;15.498;2022-10-16T04:41:08;97556.56;;;9.13;100.00
57442;BME280;43284;47.042;15.498;2022-10-16T04:43:36;97560.19;;;9.09;100.00
57442;BME280;43284;47.042;15.498;2022-10-16T04:46:05;97566.28;;;9.10;100.00
57442;BME280;43284;47.042;15.498;2022-10-16T04:48:32;97564.69;;;9.05;100.00
57442;BME280;43284;47.042;15.498;2022-10-16T04:51:00;97571.63;;;9.05;100.00
57442;BME280;43284;47.042;15.498;2022-10-16T04:53:27;97576.13;;;9.01;100.00
57442;BME280;43284;47.042;15.498;2022-10-16T04:55:54;97572.72;;;8.99;100.00
57442;BME280;43284;47.042;15.498;2022-10-16T04:58:23;97580.53;;;8.99;100.00
57442;BME280;43284;47.042;15.498;2022-10-16T05:00:51;97581.44;;;8.98;100.00
57442;BME280;43284;47.042;15.498;2022-10-16T05:03:18;97582.53;;;8.93;100.00
57442;BME280;43284;47.042;15.498;2022-10-16T05:05:46;97592.25;;;8.87;100.00
57442;BME280;43284;47.042;15.498;2022-10-16T05:08:15;97596.56;;;8.89;100.00
57442;BME280;43284;47.042;15.498;2022-10-16T05:10:43;97599.97;;;8.91;100.00
57442;BME280;43284;47.042;15.498;2022-10-16T05:13:12;97600.00;;;8.89;100.00
57442;BME280;43284;47.042;15.498;2022-10-16T05:15:40;97601.03;;;8.85;100.00
57442;BME280;43284;47.042;15.498;2022-10-16T05:18:09;97608.00;;;8.84;100.00
57442;BME280;43284;47.042;15.498;2022-10-16T05:20:36;97608.03;;;8.83;100.00
57442;BME280;43284;47.042;15.498;2022-10-16T05:23:03;97606.19;;;8.86;100.00
57442;BME280;43284;47.042;15.498;2022-10-16T05:25:30;97604.56;;;8.84;100.00
57442;BME280;43284;47.042;15.498;2022-10-16T05:27:58;97617.59;;;8.84;100.00
57442;BME280;43284;47.042;15.498;2022-10-16T05:30:26;97615.81;;;8.84;100.00
57442;BME280;43284;47.042;15.498;2022-10-16T05:32:53;97619.28;;;8.85;100.00
57442;BME280;43284;47.042;15.498;2022-10-16T05:35:21;97629.69;;;8.85;100.00
57442;BME280;43284;47.042;15.498;2022-10-16T05:37:49;97625.41;;;8.84;100.00
57442;BME280;43284;47.042;15.498;2022-10-16T05:40:16;97630.69;;;8.81;100.00
57442;BME280;43284;47.042;15.498;2022-10-16T05:42:44;97627.28;;;8.79;100.00
57442;BME280;43284;47.042;15.498;2022-10-16T05:45:11;97628.09;;;8.81;100.00
57442;BME280;43284;47.042;15.498;2022-10-16T05:47:39;97628.06;;;8.82;100.00
57442;BME280;43284;47.042;15.498;2022-10-16T05:50:07;97633.19;;;8.85;100.00
57442;BME280;43284;47.042;15.498;2022-10-16T05:52:35;97623.41;;;8.92;100.00
57442;BME280;43284;47.042;15.498;2022-10-16T05:55:03;97617.13;;;8.96;100.00
57442;BME280;43284;47.042;15.498;2022-10-16T05:57:31;97620.53;;;8.98;100.00
57442;BME280;43284;47.042;15.498;2022-10-16T05:59:58;97629.16;;;9.00;100.00
57442;BME280;43284;47.042;15.498;2022-10-16T06:02:25;97637.00;;;9.00;100.00
57442;BME280;43284;47.042;15.498;2022-10-16T06:04:53;97644.81;;;9.00;100.00
57442;BME280;43284;47.042;15.498;2022-10-16T06:07:21;97650.94;;;8.99;100.00
57442;BME280;43284;47.042;15.498;2022-10-16T06:09:52;97655.31;;;8.99;100.00
57442;BME280;43284;47.042;15.498;2022-10-16T06:12:20;97664.19;;;8.93;100.00
57442;BME280;43284;47.042;15.498;2022-10-16T06:14:48;97665.09;;;8.92;100.00
57442;BME280;43284;47.042;15.498;2022-10-16T06:17:15;97682.47;;;8.92;100.00
57442;BME280;43284;47.042;15.498;2022-10-16T06:19:49;97681.63;;;8.91;100.00
57442;BME280;43284;47.042;15.498;2022-10-16T06:22:16;97683.41;;;8.91;100.00
57442;BME280;43284;47.042;15.498;2022-10-16T06:24:43;97682.31;;;8.96;100.00
57442;BME280;43284;47.042;15.498;2022-10-16T06:27:10;97680.47;;;9.00;100.00
57442;BME280;43284;47.042;15.498;2022-10-16T06:29:38;97688.19;;;9.03;100.00
57442;BME280;43284;47.042;15.498;2022-10-16T06:32:05;97695.00;;;9.07;100.00
57442;BME280;43284;47.042;15.498;2022-10-16T06:34:33;97697.56;;;9.08;100.00
57442;BME280;43284;47.042;15.498;2022-10-16T06:37:00;97700.06;;;9.12;100.00
57442;BME280;43284;47.042;15.498;2022-10-16T06:39:28;97695.56;;;9.17;100.00
57442;BME280;43284;47.042;15.498;2022-10-16T06:41:56;97697.16;;;9.21;100.00
57442;BME280;43284;47.042;15.498;2022-10-16T06:44:23;97695.28;;;9.24;100.00
57442;BME280;43284;47.042;15.498;2022-10-16T06:46:50;97703.84;;;9.28;100.00
57442;BME280;43284;47.042;15.498;2022-10-16T06:49:18;97711.53;;;9.33;100.00
57442;BME280;43284;47.042;15.498;2022-10-16T06:51:49;97717.41;;;9.38;100.00
57442;BME280;43284;47.042;15.498;2022-10-16T06:54:17;97716.41;;;9.42;100.00
57442;BME280;43284;47.042;15.498;2022-10-16T06:56:44;97707.50;;;9.49;100.00
57442;BME280;43284;47.042;15.498;2022-10-16T06:59:11;97715.88;;;9.57;100.00
57442;BME280;43284;47.042;15.498;2022-10-16T07:01:39;97713.16;;;9.60;100.00
57442;BME280;43284;47.042;15.498;2022-10-16T07:04:06;97713.81;;;9.67;100.00
57442;BME280;43284;47.042;15.498;2022-10-16T07:06:34;97715.31;;;9.73;100.00
57442;BME280;43284;47.042;15.498;2022-10-16T07:09:04;97710.81;;;9.78;100.00
57442;BME280;43284;47.042;15.498;2022-10-16T07:11:31;97717.53;;;9.83;100.00
57442;BME280;43284;47.042;15.498;2022-10-16T07:13:59;97710.47;;;9.87;100.00
57442;BME280;43284;47.042;15.498;2022-10-16T07:16:28;97708.59;;;9.90;100.00
57442;BME280;43284;47.042;15.498;2022-10-16T07:18:56;97713.56;;;9.97;100.00
57442;BME280;43284;47.042;15.498;2022-10-16T07:21:34;97710.78;;;10.01;100.00
57442;BME280;43284;47.042;15.498;2022-10-16T07:24:09;97708.91;;;10.05;100.00
57442;BME280;43284;47.042;15.498;2022-10-16T07:26:39;97714.88;;;10.08;100.00
57442;BME280;43284;47.042;15.498;2022-10-16T07:29:14;97715.47;;;10.17;100.00
57442;BME280;43284;47.042;15.498;2022-10-16T07:31:43;97715.28;;;10.21;100.00
57442;BME280;43284;47.042;15.498;2022-10-16T07:34:13;97724.56;;;10.28;100.00
57442;BME280;43284;47.042;15.498;2022-10-16T07:36:40;97724.31;;;10.36;100.00
57442;BME280;43284;47.042;15.498;2022-10-16T07:39:08;97723.03;;;10.46;100.00
57442;BME280;43284;47.042;15.498;2022-10-16T07:41:35;97722.56;;;10.59;100.00
57442;BME280;43284;47.042;15.498;2022-10-16T07:44:03;97718.56;;;10.72;100.00
57442;BME280;43284;47.042;15.498;2022-10-16T07:46:31;97727.75;;;10.82;100.00
57442;BME280;43284;47.042;15.498;2022-10-16T07:49:00;97731.56;;;10.96;100.00
57442;BME280;43284;47.042;15.498;2022-10-16T07:51:27;97729.34;;;11.07;100.00
57442;BME280;43284;47.042;15.498;2022-10-16T07:53:55;97731.50;;;11.18;100.00
57442;BME280;43284;47.042;15.498;2022-10-16T07:56:22;97724.06;;;11.29;100.00
57442;BME280;43284;47.042;15.498;2022-10-16T07:58:50;97722.09;;;11.34;100.00
57442;BME280;43284;47.042;15.498;2022-10-16T08:01:18;97716.66;;;11.39;100.00
57442;BME280;43284;47.042;15.498;2022-10-16T08:03:50;97713.84;;;11.43;100.00
57442;BME280;43284;47.042;15.498;2022-10-16T08:06:19;97731.06;;;11.49;100.00
57442;BME280;43284;47.042;15.498;2022-10-16T08:08:46;97725.63;;;11.53;100.00
57442;BME280;43284;47.042;15.498;2022-10-16T08:11:14;97720.13;;;11.60;100.00
57442;BME280;43284;47.042;15.498;2022-10-16T08:13:42;97726.38;;;11.76;100.00
57442;BME280;43284;47.042;15.498;2022-10-16T08:16:10;97720.56;;;11.90;100.00
57442;BME280;43284;47.042;15.498;2022-10-16T08:18:39;97726.03;;;12.04;100.00
57442;BME280;43284;47.042;15.498;2022-10-16T08:21:08;97725.31;;;12.20;100.00
57442;BME280;43284;47.042;15.498;2022-10-16T08:23:40;97728.72;;;12.22;100.00
57442;BME280;43284;47.042;15.498;2022-10-16T08:26:08;97731.84;;;12.30;100.00
57442;BME280;43284;47.042;15.498;2022-10-16T08:28:36;97739.44;;;12.36;100.00
57442;BME280;43284;47.042;15.498;2022-10-16T08:31:14;97731.91;;;12.47;100.00
57442;BME280;43284;47.042;15.498;2022-10-16T08:33:43;97737.91;;;12.68;100.00
57442;BME280;43284;47.042;15.498;2022-10-16T08:36:14;97738.69;;;12.70;97.77
57442;BME280;43284;47.042;15.498;2022-10-16T08:38:42;97738.13;;;12.64;96.67
57442;BME280;43284;47.042;15.498;2022-10-16T08:49:03;97752.59;;;12.90;96.40
57442;BME280;43284;47.042;15.498;2022-10-16T08:51:36;97749.13;;;12.89;95.08
57442;BME280;43284;47.042;15.498;2022-10-16T08:56:40;97746.59;;;13.05;96.55
57442;BME280;43284;47.042;15.498;2022-10-16T08:59:10;97750.72;;;13.11;96.06
57442;BME280;43284;47.042;15.498;2022-10-16T09:01:50;97755.44;;;13.22;93.57
57442;BME280;43284;47.042;15.498;2022-10-16T09:04:40;97748.75;;;13.33;92.40
57442;BME280;43284;47.042;15.498;2022-10-16T09:07:29;97751.47;;;13.32;92.26
57442;BME280;43284;47.042;15.498;2022-10-16T09:15:46;97762.16;;;13.62;95.44
57442;BME280;43284;47.042;15.498;2022-10-16T09:21:23;97746.69;;;13.91;94.20
57442;BME280;43284;47.042;15.498;2022-10-16T09:23:51;97745.25;;;14.01;92.33
57442;BME280;43284;47.042;15.498;2022-10-16T09:26:19;97744.19;;;14.21;92.31
57442;BME280;43284;47.042;15.498;2022-10-16T09:28:48;97744.38;;;14.34;91.75
57442;BME280;43284;47.042;15.498;2022-10-16T09:31:21;97749.16;;;14.43;91.16
57442;BME280;43284;47.042;15.498;2022-10-16T09:33:57;97747.78;;;14.52;90.28
57442;BME280;43284;47.042;15.498;2022-10-16T09:36:27;97748.25;;;14.60;89.55
57442;BME280;43284;47.042;15.498;2022-10-16T09:39:09;97754.63;;;14.72;88.95
57442;BME280;43284;47.042;15.498;2022-10-16T09:41:40;97756.06;;;14.77;87.04
57442;BME280;43284;47.042;15.498;2022-10-16T09:44:28;97752.22;;;14.99;88.60
57442;BME280;43284;47.042;15.498;2022-10-16T09:47:14;97747.19;;;15.10;87.28
57442;BME280;43284;47.042;15.498;2022-10-16T09:50:02;97753.22;;;15.12;85.18
57442;BME280;43284;47.042;15.498;2022-10-16T09:52:33;97744.34;;;15.29;87.17
57442;BME280;43284;47.042;15.498;2022-10-16T09:55:15;97748.56;;;15.32;84.14
57442;BME280;43284;47.042;15.498;2022-10-16T09:57:52;97745.50;;;15.39;84.56
57442;BME280;43284;47.042;15.498;2022-10-16T10:00:22;97751.41;;;15.43;84.82
57442;BME280;43284;47.042;15.498;2022-10-16T10:02:50;97749.38;;;15.48;84.49
57442;BME280;43284;47.042;15.498;2022-10-16T10:05:21;97744.41;;;15.58;83.26
57442;BME280;43284;47.042;15.498;2022-10-16T10:07:59;97740.81;;;15.75;84.22
57442;BME280;43284;47.042;15.498;2022-10-16T10:10:31;97739.56;;;15.80;82.15
57442;BME280;43284;47.042;15.498;2022-10-16T10:12:59;97746.19;;;15.88;82.97
57442;BME280;43284;47.042;15.498;2022-10-16T10:15:33;97743.25;;;15.92;82.30
57442;BME280;43284;47.042;15.498;2022-10-16T10:18:15;97747.22;;;15.99;81.88
57442;BME280;43284;47.042;15.498;2022-10-16T10:20:45;97746.75;;;16.07;79.17
57442;BME280;43284;47.042;15.498;2022-10-16T10:23:24;97743.25;;;16.06;79.65
57442;BME280;43284;47.042;15.498;2022-10-16T10:36:38;97728.44;;;16.74;76.58
57442;BME280;43284;47.042;15.498;2022-10-16T10:42:20;97728.63;;;16.85;75.91
57442;BME280;43284;47.042;15.498;2022-10-16T10:48:06;97727.88;;;17.11;77.41
57442;BME280;43284;47.042;15.498;2022-10-16T10:51:18;97720.06;;;17.09;75.32
57442;BME280;43284;47.042;15.498;2022-10-16T10:56:57;97732.06;;;17.40;75.29
57442;BME280;43284;47.042;15.498;2022-10-16T11:02:16;97722.28;;;17.68;71.79
57442;BME280;43284;47.042;15.498;2022-10-16T11:04:54;97717.94;;;18.05;71.44
57442;BME280;43284;47.042;15.498;2022-10-16T11:07:36;97724.22;;;17.91;71.92
57442;BME280;43284;47.042;15.498;2022-10-16T11:10:18;97715.13;;;18.08;69.70
57442;BME280;43284;47.042;15.498;2022-10-16T11:13:33;97712.88;;;18.15;70.24
57442;BME280;43284;47.042;15.498;2022-10-16T11:16:13;97716.94;;;18.32;71.42
57442;BME280;43284;47.042;15.498;2022-10-16T11:18:52;97709.66;;;18.36;70.24
57442;BME280;43284;47.042;15.498;2022-10-16T11:21:24;97699.09;;;18.60;69.46
57442;BME280;43284;47.042;15.498;2022-10-16T11:24:39;97696.09;;;18.64;70.59
57442;BME280;43284;47.042;15.498;2022-10-16T11:27:14;97698.81;;;18.76;68.58
57442;BME280;43284;47.042;15.498;2022-10-16T11:29:52;97697.97;;;18.75;68.98
57442;BME280;43284;47.042;15.498;2022-10-16T11:33:00;97703.59;;;18.83;68.25
57442;BME280;43284;47.042;15.498;2022-10-16T11:38:26;97707.47;;;18.90;67.18
57442;BME280;43284;47.042;15.498;2022-10-16T11:41:14;97700.22;;;18.81;65.05
57442;BME280;43284;47.042;15.498;2022-10-16T11:44:03;97704.34;;;18.85;65.70
57442;BME280;43284;47.042;15.498;2022-10-16T11:46:36;97699.03;;;18.85;64.67
57442;BME280;43284;47.042;15.498;2022-10-16T11:49:16;97698.44;;;18.93;66.00
57442;BME280;43284;47.042;15.498;2022-10-16T11:55:21;97699.31;;;19.18;67.13
57442;BME280;43284;47.042;15.498;2022-10-16T11:57:35;97704.00;;;19.25;67.77
57442;BME280;43284;47.042;15.498;2022-10-16T12:06:21;97697.53;;;19.29;67.27
57442;BME280;43284;47.042;15.498;2022-10-16T12:08:44;97687.78;;;19.41;65.05
57442;BME280;43284;47.042;15.498;2022-10-16T12:11:41;97691.78;;;19.47;66.30
57442;BME280;43284;47.042;15.498;2022-10-16T12:17:01;97692.88;;;19.55;66.46
57442;BME280;43284;47.042;15.498;2022-10-16T12:19:30;97687.50;;;19.68;66.12
57442;BME280;43284;47.042;15.498;2022-10-16T12:22:02;97689.47;;;19.89;65.50
57442;BME280;43284;47.042;15.498;2022-10-16T12:24:43;97687.41;;;19.81;64.33
57442;BME280;43284;47.042;15.498;2022-10-16T12:27:32;97688.63;;;19.88;63.99
57442;BME280;43284;47.042;15.498;2022-10-16T12:30:02;97690.44;;;19.99;64.78
57442;BME280;43284;47.042;15.498;2022-10-16T12:35:03;97686.53;;;20.37;64.45
57442;BME280;43284;47.042;15.498;2022-10-16T12:37:37;97687.88;;;20.43;63.54
57442;BME280;43284;47.042;15.498;2022-10-16T12:42:53;97691.50;;;20.64;59.88
57442;BME280;43284;47.042;15.498;2022-10-16T12:45:32;97699.53;;;20.74;59.71
57442;BME280;43284;47.042;15.498;2022-10-16T12:48:02;97698.28;;;20.89;62.25
57442;BME280;43284;47.042;15.498;2022-10-16T12:50:34;97698.25;;;21.01;58.08
57442;BME280;43284;47.042;15.498;2022-10-16T12:53:04;97701.97;;;21.09;58.68
57442;BME280;43284;47.042;15.498;2022-10-16T12:56:08;97695.63;;;21.22;58.22
57442;BME280;43284;47.042;15.498;2022-10-16T12:58:56;97694.06;;;21.40;57.54
57442;BME280;43284;47.042;15.498;2022-10-16T13:01:42;97691.38;;;21.51;58.02
57442;BME280;43284;47.042;15.498;2022-10-16T13:10:00;97699.84;;;21.56;55.47
57442;BME280;43284;47.042;15.498;2022-10-16T13:12:56;97713.34;;;21.65;55.48
57442;BME280;43284;47.042;15.498;2022-10-16T13:15:37;97708.69;;;21.67;55.01
57442;BME280;43284;47.042;15.498;2022-10-16T13:21:00;97707.63;;;21.69;54.85
57442;BME280;43284;47.042;15.498;2022-10-16T13:24:02;97712.47;;;21.64;53.83
57442;BME280;43284;47.042;15.498;2022-10-16T13:29:22;97723.19;;;21.53;56.36
57442;BME280;43284;47.042;15.498;2022-10-16T13:31:50;97729.63;;;21.50;55.59
57442;BME280;43284;47.042;15.498;2022-10-16T13:34:20;97727.06;;;21.49;55.70
57442;BME280;43284;47.042;15.498;2022-10-16T13:36:51;97727.06;;;21.49;53.97
57442;BME280;43284;47.042;15.498;2022-10-16T13:39:30;97726.13;;;21.50;55.35
57442;BME280;43284;47.042;15.498;2022-10-16T13:42:07;97737.00;;;21.47;55.88
57442;BME280;43284;47.042;15.498;2022-10-16T13:44:52;97736.75;;;21.50;55.53
57442;BME280;43284;47.042;15.498;2022-10-16T13:47:23;97736.44;;;21.43;55.13
57442;BME280;43284;47.042;15.498;2022-10-16T13:50:02;97741.13;;;21.39;55.53
57442;BME280;43284;47.042;15.498;2022-10-16T13:52:32;97743.19;;;21.36;56.18
57442;BME280;43284;47.042;15.498;2022-10-16T13:54:59;97740.19;;;21.29;55.39
57442;BME280;43284;47.042;15.498;2022-10-16T13:57:26;97736.69;;;21.29;56.69
57442;BME280;43284;47.042;15.498;2022-10-16T13:59:54;97737.06;;;21.24;57.30
57442;BME280;43284;47.042;15.498;2022-10-16T14:02:36;97740.56;;;21.25;57.87
57442;BME280;43284;47.042;15.498;2022-10-16T14:05:09;97737.34;;;21.21;57.43
57442;BME280;43284;47.042;15.498;2022-10-16T14:07:42;97745.66;;;21.16;57.56
57442;BME280;43284;47.042;15.498;2022-10-16T14:10:39;97740.00;;;21.10;57.32
57442;BME280;43284;47.042;15.498;2022-10-16T14:13:12;97748.75;;;21.01;58.11
57442;BME280;43284;47.042;15.498;2022-10-16T14:15:48;97748.53;;;20.92;58.72
57442;BME280;43284;47.042;15.498;2022-10-16T14:18:20;97754.94;;;20.90;59.61
57442;BME280;43284;47.042;15.498;2022-10-16T14:20:49;97748.44;;;20.83;58.78
57442;BME280;43284;47.042;15.498;2022-10-16T14:23:30;97756.91;;;20.76;60.09
57442;BME280;43284;47.042;15.498;2022-10-16T14:28:37;97758.50;;;20.68;60.33
57442;BME280;43284;47.042;15.498;2022-10-16T14:31:29;97759.84;;;20.62;59.94
57442;BME280;43284;47.042;15.498;2022-10-16T14:33:57;97767.44;;;20.55;60.34
57442;BME280;43284;47.042;15.498;2022-10-16T14:36:27;97765.25;;;20.49;61.05
57442;BME280;43284;47.042;15.498;2022-10-16T14:39:03;97769.34;;;20.42;61.49
57442;BME280;43284;47.042;15.498;2022-10-16T14:41:33;97761.88;;;20.36;61.64
57442;BME280;43284;47.042;15.498;2022-10-16T14:44:09;97768.41;;;20.32;62.46
57442;BME280;43284;47.042;15.498;2022-10-16T14:46:40;97771.28;;;20.17;61.91
57442;BME280;43284;47.042;15.498;2022-10-16T14:51:40;97777.41;;;19.95;61.70
57442;BME280;43284;47.042;15.498;2022-10-16T14:54:13;97784.16;;;19.88;62.63
57442;BME280;43284;47.042;15.498;2022-10-16T14:56:54;97778.22;;;19.85;63.08